sensor_id;sensor_type;location;lat;lon;timestamp;pressure;altitude;pressure_sealevel;temperature;humidity
17311;BME280;8773;43.300;0.394;2024-03-08T00:01:27;98302.00;;;9.99;100.00
17311;BME280;8773;43.300;0.394;2024-03-08T00:03:54;98298.84;;;10.10;99.74
17311;BME280;8773;43.300;0.394;2024-03-08T00:06:22;98296.28;;;10.16;98.79
17311;BME280;8773;43.300;0.394;2024-03-08T00:08:49;98301.34;;;9.96;100.00
17311;BME280;8773;43.300;0.394;2024-03-08T00:11:16;98304.91;;;10.04;100.00
17311;BME280;8773;43.300;0.394;2024-03-08T00:13:43;98287.19;;;9.96;100.00
17311;BME280;8773;43.300;0.394;2024-03-08T00:16:12;98300.75;;;10.01;100.00
17311;BME280;8773;43.300;0.394;2024-03-08T00:18:39;98297.84;;;9.96;100.00
17311;BME280;8773;43.300;0.394;2024-03-08T00:21:07;98307.31;;;9.99;100.00
17311;BME280;8773;43.300;0.394;2024-03-08T00:23:35;98315.13;;;9.85;100.00
17311;BME280;8773;43.300;0.394;2024-03-08T00:26:02;98302.72;;;9.63;100.00
17311;BME280;8773;43.300;0.394;2024-03-08T00:28:30;98292.06;;;9.63;100.00
17311;BME280;8773;43.300;0.394;2024-03-08T00:30:57;98290.69;;;9.82;100.00
17311;BME280;8773;43.300;0.394;2024-03-08T00:33:26;98300.81;;;9.86;100.00
17311;BME280;8773;43.300;0.394;2024-03-08T00:35:53;98289.50;;;9.84;100.00
17311;BME280;8773;43.300;0.394;2024-03-08T00:38:20;98281.34;;;9.42;100.00
17311;BME280;8773;43.300;0.394;2024-03-08T00:40:48;98265.56;;;9.55;100.00
17311;BME280;8773;43.300;0.394;2024-03-08T00:43:15;98264.69;;;9.69;100.00
17311;BME280;8773;43.300;0.394;2024-03-08T00:45:42;98272.31;;;9.87;100.00
17311;BME280;8773;43.300;0.394;2024-03-08T00:48:10;98269.91;;;9.92;100.00
17311;BME280;8773;43.300;0.394;2024-03-08T00:50:38;98277.78;;;10.00;98.89
17311;BME280;8773;43.300;0.394;2024-03-08T00:53:06;98259.78;;;10.02;98.79
17311;BME280;8773;43.300;0.394;2024-03-08T00:55:33;98259.81;;;9.87;99.83
17311;BME280;8773;43.300;0.394;2024-03-08T00:58:01;98261.59;;;10.02;98.68
17311;BME280;8773;43.300;0.394;2024-03-08T01:00:28;98264.28;;;10.02;99.73
17311;BME280;8773;43.300;0.394;2024-03-08T01:02:55;98266.69;;;9.96;100.00
17311;BME280;8773;43.300;0.394;2024-03-08T01:05:23;98259.97;;;10.01;99.51
17311;BME280;8773;43.300;0.394;2024-03-08T01:07:52;98250.91;;;9.80;100.00
17311;BME280;8773;43.300;0.394;2024-03-08T01:10:19;98256.78;;;9.90;99.37
17311;BME280;8773;43.300;0.394;2024-03-08T01:12:47;98259.81;;;9.87;99.27
17311;BME280;8773;43.300;0.394;2024-03-08T01:15:14;98261.84;;;9.85;100.00
17311;BME280;8773;43.300;0.394;2024-03-08T01:17:41;98253.84;;;8.97;100.00
17311;BME280;8773;43.300;0.394;2024-03-08T01:20:09;98229.41;;;8.93;100.00
17311;BME280;8773;43.300;0.394;2024-03-08T01:22:36;98226.22;;;9.27;100.00
17311;BME280;8773;43.300;0.394;2024-03-08T01:25:06;98233.94;;;9.37;100.00
17311;BME280;8773;43.300;0.394;2024-03-08T01:27:33;98224.41;;;9.43;100.00
17311;BME280;8773;43.300;0.394;2024-03-08T01:30:01;98218.72;;;9.31;100.00
17311;BME280;8773;43.300;0.394;2024-03-08T01:32:28;98218.97;;;9.36;100.00
17311;BME280;8773;43.300;0.394;2024-03-08T01:34:55;98239.75;;;9.41;100.00
17311;BME280;8773;43.300;0.394;2024-03-08T01:37:23;98238.91;;;9.40;100.00
17311;BME280;8773;43.300;0.394;2024-03-08T01:39:50;98233.13;;;9.37;100.00
17311;BME280;8773;43.300;0.394;2024-03-08T01:42:19;98218.78;;;9.23;100.00
17311;BME280;8773;43.300;0.394;2024-03-08T01:44:46;98214.66;;;9.20;100.00
17311;BME280;8773;43.300;0.394;2024-03-08T01:47:14;98202.91;;;9.00;100.00
17311;BME280;8773;43.300;0.394;2024-03-08T01:49:41;98203.09;;;9.13;100.00
17311;BME280;8773;43.300;0.394;2024-03-08T01:52:08;98205.66;;;9.21;100.00
17311;BME280;8773;43.300;0.394;2024-03-08T01:54:36;98211.81;;;9.07;100.00
17311;BME280;8773;43.300;0.394;2024-03-08T01:57:03;98212.34;;;9.17;100.00
17311;BME280;8773;43.300;0.394;2024-03-08T01:59:32;98217.50;;;9.04;100.00
17311;BME280;8773;43.300;0.394;2024-03-08T02:02:01;98217.31;;;8.91;100.00
17311;BME280;8773;43.300;0.394;2024-03-08T02:04:29;98229.41;;;8.93;100.00
17311;BME280;8773;43.300;0.394;2024-03-08T02:06:57;98228.91;;;8.60;100.00
17311;BME280;8773;43.300;0.394;2024-03-08T02:09:24;98215.00;;;8.50;100.00
17311;BME280;8773;43.300;0.394;2024-03-08T02:11:51;98207.63;;;8.75;100.00
17311;BME280;8773;43.300;0.394;2024-03-08T02:14:19;98210.00;;;8.70;100.00
17311;BME280;8773;43.300;0.394;2024-03-08T02:16:48;98211.75;;;8.78;100.00
17311;BME280;8773;43.300;0.394;2024-03-08T02:19:15;98215.00;;;8.50;100.00
17311;BME280;8773;43.300;0.394;2024-03-08T02:21:43;98212.22;;;8.67;100.00
17311;BME280;8773;43.300;0.394;2024-03-08T02:24:11;98221.16;;;8.88;100.00
17311;BME280;8773;43.300;0.394;2024-03-08T02:26:38;98226.41;;;8.96;100.00
17311;BME280;8773;43.300;0.394;2024-03-08T02:29:05;98225.00;;;8.86;100.00
17311;BME280;8773;43.300;0.394;2024-03-08T02:31:33;98219.50;;;8.87;100.00
17311;BME280;8773;43.300;0.394;2024-03-08T02:34:00;98224.31;;;9.07;100.00
17311;BME280;8773;43.300;0.394;2024-03-08T02:36:27;98239.91;;;9.10;100.00
17311;BME280;8773;43.300;0.394;2024-03-08T02:38:56;98225.66;;;9.17;100.00
17311;BME280;8773;43.300;0.394;2024-03-08T02:41:23;98216.59;;;9.26;100.00
17311;BME280;8773;43.300;0.394;2024-03-08T02:43:50;98209.16;;;9.22;100.00
17311;BME280;8773;43.300;0.394;2024-03-08T02:46:18;98215.31;;;9.22;100.00
17311;BME280;8773;43.300;0.394;2024-03-08T02:48:45;98220.00;;;9.35;100.00
17311;BME280;8773;43.300;0.394;2024-03-08T02:51:12;98220.91;;;9.27;100.00
17311;BME280;8773;43.300;0.394;2024-03-08T02:53:40;98222.75;;;9.12;100.00
17311;BME280;8773;43.300;0.394;2024-03-08T02:56:09;98228.44;;;9.09;100.00
17311;BME280;8773;43.300;0.394;2024-03-08T02:58:36;98232.19;;;9.15;100.00
17311;BME280;8773;43.300;0.394;2024-03-08T03:01:03;98223.13;;;9.09;100.00
17311;BME280;8773;43.300;0.394;2024-03-08T03:03:31;98233.66;;;9.17;100.00
17311;BME280;8773;43.300;0.394;2024-03-08T03:05:58;98228.78;;;9.21;100.00
17311;BME280;8773;43.300;0.394;2024-03-08T03:08:25;98213.19;;;9.18;100.00
17311;BME280;8773;43.300;0.394;2024-03-08T03:10:52;98215.78;;;9.11;100.00
17311;BME280;8773;43.300;0.394;2024-03-08T03:13:21;98198.22;;;9.17;100.00
17311;BME280;8773;43.300;0.394;2024-03-08T03:15:48;98188.03;;;9.20;100.00
17311;BME280;8773;43.300;0.394;2024-03-08T03:18:16;98181.16;;;9.26;100.00
17311;BME280;8773;43.300;0.394;2024-03-08T03:20:43;98175.56;;;9.06;100.00
17311;BME280;8773;43.300;0.394;2024-03-08T03:23:11;98190.97;;;8.96;100.00
17311;BME280;8773;43.300;0.394;2024-03-08T03:25:38;98208.63;;;9.12;100.00
17311;BME280;8773;43.300;0.394;2024-03-08T03:28:06;98227.06;;;9.28;100.00
17311;BME280;8773;43.300;0.394;2024-03-08T03:30:35;98196.31;;;9.40;100.00
17311;BME280;8773;43.300;0.394;2024-03-08T03:33:03;98191.00;;;9.11;100.00
17311;BME280;8773;43.300;0.394;2024-03-08T03:35:30;98219.63;;;9.23;100.00
17311;BME280;8773;43.300;0.394;2024-03-08T03:37:58;98227.50;;;9.02;100.00
17311;BME280;8773;43.300;0.394;2024-03-08T03:40:25;98224.09;;;8.93;100.00
17311;BME280;8773;43.300;0.394;2024-03-08T03:42:52;98227.78;;;9.07;100.00
17311;BME280;8773;43.300;0.394;2024-03-08T03:45:19;98232.75;;;9.10;100.00
17311;BME280;8773;43.300;0.394;2024-03-08T03:47:48;98248.34;;;9.13;100.00
17311;BME280;8773;43.300;0.394;2024-03-08T03:50:16;98260.47;;;9.30;100.00
17311;BME280;8773;43.300;0.394;2024-03-08T03:52:43;98257.28;;;9.35;100.00
17311;BME280;8773;43.300;0.394;2024-03-08T03:55:10;98255.63;;;9.34;100.00
17311;BME280;8773;43.300;0.394;2024-03-08T03:57:37;98260.84;;;9.27;100.00
17311;BME280;8773;43.300;0.394;2024-03-08T04:00:06;98251.19;;;9.26;100.00
17311;BME280;8773;43.300;0.394;2024-03-08T04:02:33;98255.22;;;9.22;100.00
17311;BME280;8773;43.300;0.394;2024-03-08T04:05:03;98245.97;;;9.18;100.00
17311;BME280;8773;43.300;0.394;2024-03-08T04:07:30;98264.72;;;8.87;100.00
17311;BME280;8773;43.300;0.394;2024-03-08T04:09:57;98258.88;;;8.46;100.00
17311;BME280;8773;43.300;0.394;2024-03-08T04:12:24;98260.88;;;8.90;100.00
17311;BME280;8773;43.300;0.394;2024-03-08T04:14:52;98266.97;;;8.99;100.00
17311;BME280;8773;43.300;0.394;2024-03-08T04:17:19;98291.97;;;8.89;100.00
17311;BME280;8773;43.300;0.394;2024-03-08T04:19:47;98311.84;;;9.16;100.00
17311;BME280;8773;43.300;0.394;2024-03-08T04:22:15;98318.41;;;9.28;100.00
17311;BME280;8773;43.300;0.394;2024-03-08T04:24:43;98313.66;;;9.39;100.00
17311;BME280;8773;43.300;0.394;2024-03-08T04:27:10;98292.69;;;9.21;100.00
17311;BME280;8773;43.300;0.394;2024-03-08T04:29:38;98292.50;;;9.08;100.00
17311;BME280;8773;43.300;0.394;2024-03-08T04:32:06;98278.53;;;9.20;100.00
17311;BME280;8773;43.300;0.394;2024-03-08T04:34:33;98272.50;;;9.12;100.00
17311;BME280;8773;43.300;0.394;2024-03-08T04:37:01;98250.56;;;9.24;100.00
17311;BME280;8773;43.300;0.394;2024-03-08T04:39:30;98245.78;;;9.35;100.00
17311;BME280;8773;43.300;0.394;2024-03-08T04:41:59;98238.28;;;9.53;100.00
17311;BME280;8773;43.300;0.394;2024-03-08T04:44:32;98243.22;;;9.56;100.00
17311;BME280;8773;43.300;0.394;2024-03-08T04:47:00;98242.47;;;9.62;100.00
17311;BME280;8773;43.300;0.394;2024-03-08T04:49:27;98233.94;;;9.67;100.00
17311;BME280;8773;43.300;0.394;2024-03-08T04:51:55;98237.22;;;9.69;100.00
17311;BME280;8773;43.300;0.394;2024-03-08T04:54:22;98232.34;;;9.72;100.00
17311;BME280;8773;43.300;0.394;2024-03-08T04:56:51;98236.41;;;9.68;100.00
17311;BME280;8773;43.300;0.394;2024-03-08T04:59:18;98237.91;;;9.56;100.00
17311;BME280;8773;43.300;0.394;2024-03-08T05:01:45;98252.28;;;9.61;100.00
17311;BME280;8773;43.300;0.394;2024-03-08T05:04:12;98258.38;;;9.55;100.00
17311;BME280;8773;43.300;0.394;2024-03-08T05:06:40;98262.56;;;9.20;100.00
17311;BME280;8773;43.300;0.394;2024-03-08T05:09:07;98249.22;;;8.91;100.00
17311;BME280;8773;43.300;0.394;2024-03-08T05:11:34;98250.31;;;8.82;100.00
17311;BME280;8773;43.300;0.394;2024-03-08T05:14:03;98241.28;;;9.06;100.00
17311;BME280;8773;43.300;0.394;2024-03-08T05:16:30;98229.97;;;9.18;100.00
17311;BME280;8773;43.300;0.394;2024-03-08T05:18:57;98221.63;;;9.21;100.00
17311;BME280;8773;43.300;0.394;2024-03-08T05:21:25;98206.78;;;9.12;100.00
17311;BME280;8773;43.300;0.394;2024-03-08T05:23:52;98188.97;;;9.27;100.00
17311;BME280;8773;43.300;0.394;2024-03-08T05:26:20;98195.28;;;9.41;100.00
17311;BME280;8773;43.300;0.394;2024-03-08T05:28:47;98201.81;;;9.53;100.00
17311;BME280;8773;43.300;0.394;2024-03-08T05:31:19;98201.22;;;9.58;100.00
17311;BME280;8773;43.300;0.394;2024-03-08T05:33:47;98195.72;;;9.59;100.00
17311;BME280;8773;43.300;0.394;2024-03-08T05:36:14;98186.94;;;9.44;100.00
17311;BME280;8773;43.300;0.394;2024-03-08T05:38:42;98205.47;;;9.23;100.00
17311;BME280;8773;43.300;0.394;2024-03-08T05:41:09;98216.78;;;9.40;100.00
17311;BME280;8773;43.300;0.394;2024-03-08T05:43:36;98222.28;;;9.53;100.00
17311;BME280;8773;43.300;0.394;2024-03-08T05:46:04;98219.44;;;9.40;100.00
17311;BME280;8773;43.300;0.394;2024-03-08T05:48:32;98216.03;;;9.16;100.00
17311;BME280;8773;43.300;0.394;2024-03-08T05:51:00;98227.25;;;9.26;100.00
17311;BME280;8773;43.300;0.394;2024-03-08T05:53:27;98242.56;;;9.10;100.00
17311;BME280;8773;43.300;0.394;2024-03-08T05:55:55;98235.94;;;8.91;100.00
17311;BME280;8773;43.300;0.394;2024-03-08T05:58:22;98233.13;;;9.07;100.00
17311;BME280;8773;43.300;0.394;2024-03-08T06:00:49;98224.31;;;9.07;100.00
17311;BME280;8773;43.300;0.394;2024-03-08T06:03:19;98235.84;;;8.99;100.00
17311;BME280;8773;43.300;0.394;2024-03-08T06:05:49;98214.97;;;8.73;100.00
17311;BME280;8773;43.300;0.394;2024-03-08T06:08:16;98222.13;;;8.73;100.00
17311;BME280;8773;43.300;0.394;2024-03-08T06:10:43;98222.53;;;8.84;100.00
17311;BME280;8773;43.300;0.394;2024-03-08T06:13:11;98226.72;;;8.79;100.00
17311;BME280;8773;43.300;0.394;2024-03-08T06:15:38;98230.78;;;8.89;100.00
17311;BME280;8773;43.300;0.394;2024-03-08T06:18:05;98249.81;;;9.01;100.00
17311;BME280;8773;43.300;0.394;2024-03-08T06:20:33;98233.00;;;9.15;100.00
17311;BME280;8773;43.300;0.394;2024-03-08T06:23:02;98228.09;;;8.75;100.00
17311;BME280;8773;43.300;0.394;2024-03-08T06:25:29;98224.06;;;8.79;100.00
17311;BME280;8773;43.300;0.394;2024-03-08T06:27:57;98232.81;;;8.87;100.00
17311;BME280;8773;43.300;0.394;2024-03-08T06:30:24;98238.16;;;9.02;100.00
17311;BME280;8773;43.300;0.394;2024-03-08T06:32:51;98220.31;;;8.88;100.00
17311;BME280;8773;43.300;0.394;2024-03-08T06:35:19;98245.03;;;8.96;100.00
17311;BME280;8773;43.300;0.394;2024-03-08T06:37:46;98233.41;;;8.75;100.00
17311;BME280;8773;43.300;0.394;2024-03-08T06:40:15;98222.94;;;8.58;100.00
17311;BME280;8773;43.300;0.394;2024-03-08T06:42:42;98216.59;;;8.59;100.00
17311;BME280;8773;43.300;0.394;2024-03-08T06:45:09;98208.81;;;8.73;100.00
17311;BME280;8773;43.300;0.394;2024-03-08T06:47:37;98217.47;;;8.89;100.00
17311;BME280;8773;43.300;0.394;2024-03-08T06:50:05;98213.28;;;8.95;100.00
17311;BME280;8773;43.300;0.394;2024-03-08T06:52:33;98204.09;;;8.98;100.00
17311;BME280;8773;43.300;0.394;2024-03-08T06:55:00;98202.06;;;9.14;100.00
17311;BME280;8773;43.300;0.394;2024-03-08T06:57:29;98205.03;;;9.19;100.00
17311;BME280;8773;43.300;0.394;2024-03-08T06:59:56;98204.75;;;9.14;100.00
17311;BME280;8773;43.300;0.394;2024-03-08T07:02:23;98204.50;;;9.09;100.00
17311;BME280;8773;43.300;0.394;2024-03-08T07:04:50;98221.13;;;8.74;100.00
17311;BME280;8773;43.300;0.394;2024-03-08T07:07:18;98233.88;;;8.78;100.00
17311;BME280;8773;43.300;0.394;2024-03-08T07:09:45;98239.72;;;8.96;100.00
17311;BME280;8773;43.300;0.394;2024-03-08T07:12:13;98248.25;;;9.07;100.00
17311;BME280;8773;43.300;0.394;2024-03-08T07:14:41;98255.13;;;9.01;100.00
17311;BME280;8773;43.300;0.394;2024-03-08T07:17:09;98247.06;;;9.09;100.00
17311;BME280;8773;43.300;0.394;2024-03-08T07:19:36;98241.19;;;8.99;100.00
17311;BME280;8773;43.300;0.394;2024-03-08T07:22:04;98240.47;;;9.05;100.00
17311;BME280;8773;43.300;0.394;2024-03-08T07:24:31;98225.78;;;9.09;100.00
17311;BME280;8773;43.300;0.394;2024-03-08T07:26:58;98222.81;;;9.19;100.00
17311;BME280;8773;43.300;0.394;2024-03-08T07:29:26;98224.75;;;9.25;100.00
17311;BME280;8773;43.300;0.394;2024-03-08T07:31:54;98229.00;;;9.34;100.00
17311;BME280;8773;43.300;0.394;2024-03-08T07:34:22;98242.94;;;9.36;100.00
17311;BME280;8773;43.300;0.394;2024-03-08T07:36:49;98246.88;;;9.25;100.00
17311;BME280;8773;43.300;0.394;2024-03-08T07:39:16;98234.97;;;9.36;100.00
17311;BME280;8773;43.300;0.394;2024-03-08T07:41:44;98227.63;;;9.38;100.00
17311;BME280;8773;43.300;0.394;2024-03-08T07:44:11;98213.38;;;9.46;100.00
17311;BME280;8773;43.300;0.394;2024-03-08T07:46:38;98215.22;;;9.45;100.00
17311;BME280;8773;43.300;0.394;2024-03-08T07:49:07;98212.38;;;9.47;100.00
17311;BME280;8773;43.300;0.394;2024-03-08T07:51:34;98205.03;;;9.49;100.00
17311;BME280;8773;43.300;0.394;2024-03-08T07:54:01;98198.88;;;9.48;100.00
17311;BME280;8773;43.300;0.394;2024-03-08T07:56:29;98206.56;;;9.58;100.00
17311;BME280;8773;43.300;0.394;2024-03-08T07:58:56;98204.34;;;9.61;100.00
17311;BME280;8773;43.300;0.394;2024-03-08T08:01:24;98200.03;;;9.60;100.00
17311;BME280;8773;43.300;0.394;2024-03-08T08:03:51;98204.09;;;9.42;100.00
17311;BME280;8773;43.300;0.394;2024-03-08T08:06:20;98199.69;;;9.49;100.00
17311;BME280;8773;43.300;0.394;2024-03-08T08:08:47;98206.31;;;9.53;100.00
17311;BME280;8773;43.300;0.394;2024-03-08T08:11:15;98225.75;;;9.68;100.00
17311;BME280;8773;43.300;0.394;2024-03-08T08:13:42;98235.22;;;9.71;100.00
17311;BME280;8773;43.300;0.394;2024-03-08T08:16:09;98231.25;;;9.81;100.00
17311;BME280;8773;43.300;0.394;2024-03-08T08:18:37;98221.22;;;9.83;100.00
17311;BME280;8773;43.300;0.394;2024-03-08T08:21:04;98225.56;;;9.70;100.00
17311;BME280;8773;43.300;0.394;2024-03-08T08:23:33;98232.94;;;9.53;100.00
17311;BME280;8773;43.300;0.394;2024-03-08T08:26:00;98234.88;;;9.44;100.00
17311;BME280;8773;43.300;0.394;2024-03-08T08:28:28;98238.28;;;9.38;100.00
17311;BME280;8773;43.300;0.394;2024-03-08T08:30:55;98228.72;;;9.44;100.00
17311;BME280;8773;43.300;0.394;2024-03-08T08:33:22;98218.53;;;9.47;100.00
17311;BME280;8773;43.300;0.394;2024-03-08T08:35:49;98207.03;;;9.32;100.00
17311;BME280;8773;43.300;0.394;2024-03-08T08:38:17;98207.97;;;9.24;100.00
17311;BME280;8773;43.300;0.394;2024-03-08T08:40:45;98226.88;;;9.29;100.00
17311;BME280;8773;43.300;0.394;2024-03-08T08:43:13;98225.66;;;9.61;100.00
17311;BME280;8773;43.300;0.394;2024-03-08T08:45:41;98241.19;;;9.73;100.00
17311;BME280;8773;43.300;0.394;2024-03-08T08:48:08;98246.31;;;9.74;100.00
17311;BME280;8773;43.300;0.394;2024-03-08T08:50:35;98248.81;;;9.76;100.00
17311;BME280;8773;43.300;0.394;2024-03-08T08:53:03;98246.31;;;9.59;100.00
17311;BME280;8773;43.300;0.394;2024-03-08T08:55:30;98243.00;;;9.72;100.00
17311;BME280;8773;43.300;0.394;2024-03-08T08:57:59;98230.50;;;9.87;100.00
17311;BME280;8773;43.300;0.394;2024-03-08T09:00:27;98230.50;;;9.87;100.00
17311;BME280;8773;43.300;0.394;2024-03-08T09:02:55;98226.97;;;10.02;100.00
17311;BME280;8773;43.300;0.394;2024-03-08T09:05:22;98223.84;;;10.13;100.00
17311;BME280;8773;43.300;0.394;2024-03-08T09:07:50;98220.88;;;10.22;100.00
17311;BME280;8773;43.300;0.394;2024-03-08T09:10:17;98226.72;;;10.33;100.00
17311;BME280;8773;43.300;0.394;2024-03-08T09:12:45;98227.47;;;10.48;100.00
17311;BME280;8773;43.300;0.394;2024-03-08T09:15:13;98206.72;;;10.22;100.00
17311;BME280;8773;43.300;0.394;2024-03-08T09:17:41;98212.47;;;10.47;100.00
17311;BME280;8773;43.300;0.394;2024-03-08T09:20:10;98213.69;;;10.44;100.00
17311;BME280;8773;43.300;0.394;2024-03-08T09:22:38;98215.88;;;10.34;100.00
17311;BME280;8773;43.300;0.394;2024-03-08T09:25:06;98213.06;;;10.42;100.00
17311;BME280;8773;43.300;0.394;2024-03-08T09:27:33;98212.78;;;10.58;100.00
17311;BME280;8773;43.300;0.394;2024-03-08T09:30:05;98197.53;;;10.74;100.00
17311;BME280;8773;43.300;0.394;2024-03-08T09:32:34;98204.91;;;10.72;100.00
17311;BME280;8773;43.300;0.394;2024-03-08T09:35:02;98202.13;;;10.58;100.00
17311;BME280;8773;43.300;0.394;2024-03-08T09:37:30;98205.94;;;10.71;100.00
17311;BME280;8773;43.300;0.394;2024-03-08T09:39:57;98195.69;;;11.02;100.00
17311;BME280;8773;43.300;0.394;2024-03-08T09:42:24;98188.28;;;11.39;100.00
17311;BME280;8773;43.300;0.394;2024-03-08T09:44:52;98187.75;;;10.87;100.00
17311;BME280;8773;43.300;0.394;2024-03-08T09:47:22;98185.19;;;11.01;100.00
17311;BME280;8773;43.300;0.394;2024-03-08T09:49:53;98180.19;;;11.53;100.00
17311;BME280;8773;43.300;0.394;2024-03-08T09:52:21;98168.34;;;11.82;97.36
17311;BME280;8773;43.300;0.394;2024-03-08T09:54:48;98154.06;;;12.10;94.48
17311;BME280;8773;43.300;0.394;2024-03-08T09:57:16;98156.53;;;12.31;91.09
17311;BME280;8773;43.300;0.394;2024-03-08T09:59:47;98148.50;;;12.11;90.58
17311;BME280;8773;43.300;0.394;2024-03-08T10:02:15;98144.59;;;12.14;90.44
17311;BME280;8773;43.300;0.394;2024-03-08T10:04:43;98135.13;;;12.44;89.05
17311;BME280;8773;43.300;0.394;2024-03-08T10:07:12;98127.75;;;12.73;85.57
17311;BME280;8773;43.300;0.394;2024-03-08T10:09:40;98121.06;;;13.08;83.39
17311;BME280;8773;43.300;0.394;2024-03-08T10:12:08;98104.78;;;13.10;80.90
17311;BME280;8773;43.300;0.394;2024-03-08T10:14:39;98094.41;;;13.33;80.37
17311;BME280;8773;43.300;0.394;2024-03-08T10:17:07;98088.50;;;13.18;79.92
17311;BME280;8773;43.300;0.394;2024-03-08T10:19:34;98071.22;;;13.52;80.34
17311;BME280;8773;43.300;0.394;2024-03-08T10:22:02;98057.81;;;13.52;76.91
17311;BME280;8773;43.300;0.394;2024-03-08T10:24:30;98044.97;;;13.67;75.37
17311;BME280;8773;43.300;0.394;2024-03-08T10:26:59;98030.34;;;13.63;72.86
17311;BME280;8773;43.300;0.394;2024-03-08T10:29:26;98025.00;;;13.94;70.74
17311;BME280;8773;43.300;0.394;2024-03-08T10:31:53;98032.16;;;14.01;68.65
17311;BME280;8773;43.300;0.394;2024-03-08T10:34:21;98029.19;;;13.84;68.09
17311;BME280;8773;43.300;0.394;2024-03-08T10:36:50;98027.19;;;14.04;65.83
17311;BME280;8773;43.300;0.394;2024-03-08T10:39:22;98028.19;;;14.10;65.78
17311;BME280;8773;43.300;0.394;2024-03-08T10:41:56;98036.75;;;13.93;63.22
17311;BME280;8773;43.300;0.394;2024-03-08T10:44:39;98037.53;;;14.01;65.59
17311;BME280;8773;43.300;0.394;2024-03-08T10:47:14;98040.28;;;13.18;64.45
17311;BME280;8773;43.300;0.394;2024-03-08T10:49:54;98040.88;;;13.20;67.21
17311;BME280;8773;43.300;0.394;2024-03-08T10:52:23;98038.72;;;13.42;66.75
17311;BME280;8773;43.300;0.394;2024-03-08T10:54:52;98040.09;;;13.13;64.01
17311;BME280;8773;43.300;0.394;2024-03-08T10:57:23;98031.53;;;13.36;66.19
17311;BME280;8773;43.300;0.394;2024-03-08T10:59:51;98037.59;;;13.56;65.02
17311;BME280;8773;43.300;0.394;2024-03-08T11:02:25;98031.34;;;13.69;62.49
17311;BME280;8773;43.300;0.394;2024-03-08T11:04:53;98019.13;;;14.04;60.98
17311;BME280;8773;43.300;0.394;2024-03-08T11:07:20;98019.84;;;14.18;60.65
17311;BME280;8773;43.300;0.394;2024-03-08T11:09:48;98013.63;;;14.42;58.88
17311;BME280;8773;43.300;0.394;2024-03-08T11:12:23;98018.25;;;14.35;58.40
17311;BME280;8773;43.300;0.394;2024-03-08T11:14:52;98019.91;;;13.86;59.42
17311;BME280;8773;43.300;0.394;2024-03-08T11:17:39;98015.25;;;14.00;59.85
17311;BME280;8773;43.300;0.394;2024-03-08T11:20:11;98015.94;;;14.39;58.93
17311;BME280;8773;43.300;0.394;2024-03-08T11:22:38;98007.09;;;13.88;58.11
17311;BME280;8773;43.300;0.394;2024-03-08T11:25:09;98000.53;;;13.46;58.04
17311;BME280;8773;43.300;0.394;2024-03-08T11:27:38;97987.28;;;13.58;58.84
17311;BME280;8773;43.300;0.394;2024-03-08T11:30:06;97987.88;;;13.91;57.45
17311;BME280;8773;43.300;0.394;2024-03-08T11:32:35;97967.38;;;13.72;56.38
17311;BME280;8773;43.300;0.394;2024-03-08T11:35:06;97950.31;;;13.91;56.76
17311;BME280;8773;43.300;0.394;2024-03-08T11:37:34;97952.78;;;14.18;54.29
17311;BME280;8773;43.300;0.394;2024-03-08T11:40:05;97943.22;;;14.04;55.36
17311;BME280;8773;43.300;0.394;2024-03-08T11:42:40;97944.47;;;14.01;55.59
17311;BME280;8773;43.300;0.394;2024-03-08T11:45:08;97945.03;;;14.28;55.28
17311;BME280;8773;43.300;0.394;2024-03-08T11:47:36;97941.78;;;14.63;52.78
17311;BME280;8773;43.300;0.394;2024-03-08T11:50:04;97929.81;;;14.95;51.54
17311;BME280;8773;43.300;0.394;2024-03-08T11:52:31;97928.09;;;15.01;51.78
17311;BME280;8773;43.300;0.394;2024-03-08T11:54:59;97926.66;;;15.16;52.05
17311;BME280;8773;43.300;0.394;2024-03-08T11:57:26;97919.56;;;14.85;50.60
17311;BME280;8773;43.300;0.394;2024-03-08T11:59:56;97906.22;;;14.97;50.75
17311;BME280;8773;43.300;0.394;2024-03-08T12:02:24;97903.88;;;14.52;49.84
17311;BME280;8773;43.300;0.394;2024-03-08T12:04:56;97918.50;;;14.20;49.93
17311;BME280;8773;43.300;0.394;2024-03-08T12:07:23;97923.25;;;14.36;50.99
17311;BME280;8773;43.300;0.394;2024-03-08T12:10:15;97921.63;;;14.53;50.19
17311;BME280;8773;43.300;0.394;2024-03-08T12:12:43;97929.34;;;14.80;49.21
17311;BME280;8773;43.300;0.394;2024-03-08T12:15:12;97915.44;;;15.19;48.56
17311;BME280;8773;43.300;0.394;2024-03-08T12:17:40;97919.94;;;15.49;47.44
17311;BME280;8773;43.300;0.394;2024-03-08T12:20:16;97899.97;;;15.56;46.95
17311;BME280;8773;43.300;0.394;2024-03-08T12:22:44;97901.84;;;15.56;46.77
17311;BME280;8773;43.300;0.394;2024-03-08T12:25:12;97913.69;;;15.78;47.71
17311;BME280;8773;43.300;0.394;2024-03-08T12:27:40;97908.81;;;15.99;47.13
17311;BME280;8773;43.300;0.394;2024-03-08T12:30:20;97903.03;;;15.83;44.81
17311;BME280;8773;43.300;0.394;2024-03-08T12:32:50;97900.91;;;15.74;43.79
17311;BME280;8773;43.300;0.394;2024-03-08T12:35:20;97897.13;;;16.05;45.86
17311;BME280;8773;43.300;0.394;2024-03-08T12:37:48;97912.88;;;16.24;44.58
17311;BME280;8773;43.300;0.394;2024-03-08T12:40:16;97908.03;;;15.68;41.06
17311;BME280;8773;43.300;0.394;2024-03-08T12:42:43;97905.47;;;15.50;41.98
17311;BME280;8773;43.300;0.394;2024-03-08T12:45:10;97905.13;;;15.70;41.59
17311;BME280;8773;43.300;0.394;2024-03-08T12:47:39;97898.72;;;15.94;41.70
17311;BME280;8773;43.300;0.394;2024-03-08T12:50:07;97897.13;;;16.05;40.72
17311;BME280;8773;43.300;0.394;2024-03-08T12:52:34;97891.94;;;16.38;38.33
17311;BME280;8773;43.300;0.394;2024-03-08T12:55:02;97876.69;;;16.84;39.45
17311;BME280;8773;43.300;0.394;2024-03-08T12:57:29;97886.31;;;16.80;39.63
17311;BME280;8773;43.300;0.394;2024-03-08T12:59:56;97891.41;;;16.93;38.50
17311;BME280;8773;43.300;0.394;2024-03-08T13:02:24;97889.59;;;16.82;40.62
17311;BME280;8773;43.300;0.394;2024-03-08T13:04:52;97891.53;;;16.98;39.01
17311;BME280;8773;43.300;0.394;2024-03-08T13:07:20;97893.16;;;16.59;38.50
17311;BME280;8773;43.300;0.394;2024-03-08T13:09:47;97896.19;;;15.99;39.42
17311;BME280;8773;43.300;0.394;2024-03-08T13:12:14;97894.50;;;16.10;40.67
17311;BME280;8773;43.300;0.394;2024-03-08T13:14:42;97896.63;;;16.08;40.09